1997 FABRIOLA (1996361S12060)


On this page: IBTrACS data - Map and Plots - Positions - Intensities - Original source data

Summary

Start Dec 25
End Jan 11
Basin SI
LMI 60 kt
Sources jtwc_sh
reunion
neumann
In WMO? Yes
Previous storm 1997 PHIL (SP)
Previous in basin 1997 PHIL (SP)
Concurrent storms 1997 OPHELIA (SI)
1996 FERN (WP)
1997 FERGUS (SP)
1996 GREG (WP)
1997 PHIL (SP)
1997 FABRIOLA (SI)
1996 MISSING (WP)
1997 RACHEL (SP)
1997 DRENA (SP)
1997 HSK1897 (SI)
1997 EVAN (SP)
1997 HANNAH (WP)
Next in basin 1997 RACHEL (SP)
Next storm 1996 MISSING (WP)

top of page IBTrACS Data: File Access

Image of storm

top of page Plots:

Map of storm track will not appear if FTP is down
Time series of cyclone Maximum Sustained Wind will not appear if FTP is down
Time series of cyclone Minimum Central Pressure will not appear if FTP is down

top of page Track Data:Position

jtwc_sh reunion neumann
Date Lat Lon Lat Lon Lat Lon
1996-12-25 18:00:00 -12.0 60.0
1996-12-26 00:00:00 -12.0 60.0
1996-12-26 06:00:00 -12.0 60.0
1996-12-26 12:00:00 -12.0 60.0
1996-12-26 18:00:00 -12.0 60.0
1996-12-27 00:00:00 -12.0 60.0
1996-12-27 06:00:00 -12.0 60.0
1996-12-27 12:00:00 -12.0 60.0
1996-12-27 18:00:00 -12.0 60.0
1996-12-28 00:00:00 -12.0 60.0
1996-12-28 06:00:00 -12.0 60.0
1996-12-28 12:00:00 -12.0 60.0
1996-12-28 18:00:00 -12.0 60.0
1996-12-29 00:00:00 -12.0 60.0
1996-12-29 06:00:00 -12.0 60.0
1996-12-29 12:00:00 -12.0 60.0
1996-12-29 18:00:00 -12.0 60.0
1996-12-30 00:00:00 -12.0 60.0
1996-12-30 06:00:00 -12.0 60.0
1996-12-30 12:00:00 -12.0 60.0
1996-12-30 18:00:00 -12.0 60.0
1996-12-31 00:00:00 -12.0 60.0
1996-12-31 06:00:00 -12.0 60.0
1996-12-31 12:00:00 -12.0 60.0
1996-12-31 18:00:00 -12.1 59.8 -12.1 59.8
jtwc_sh reunion neumann
1997-01-01 00:00:00 -12.3 59.5 -12.3 59.5
1997-01-01 06:00:00 -12.6 58.8 -12.6 58.8
1997-01-01 12:00:00 -13.1 58.3 -13.1 58.3
1997-01-01 18:00:00 -13.4 57.7 -13.4 57.7
1997-01-02 00:00:00 -13.7 57.1 -13.7 57.1
1997-01-02 06:00:00 -13.9 56.4 -13.9 56.4
1997-01-02 12:00:00 -14.0 55.7 -14.4 55.7 -14.0 55.7
1997-01-02 18:00:00 -14.2 55.0 -14.4 54.9 -14.2 55.0
1997-01-03 00:00:00 -14.4 54.2 -14.2 54.1 -14.4 54.2
1997-01-03 06:00:00 -14.3 53.3 -14.3 53.3 -14.3 53.3
1997-01-03 12:00:00 -14.5 52.5 -14.5 52.6 -14.5 52.5
1997-01-03 18:00:00 -14.8 51.9 -15.0 51.8 -14.8 51.9
1997-01-04 00:00:00 -15.3 51.3 -15.6 50.7 -15.3 51.3
1997-01-04 06:00:00 -15.7 50.5 -15.8 50.0 -15.7 50.5
1997-01-04 12:00:00 -15.7 49.6 -15.9 49.5 -15.7 49.6
1997-01-04 18:00:00 -15.7 48.7 -15.9 48.6 -15.7 48.7
1997-01-05 00:00:00 -15.6 47.9 -15.7 47.2 -15.6 47.9
1997-01-05 06:00:00 -15.4 46.9 -15.4 46.0 -15.4 46.9
1997-01-05 12:00:00 -15.4 45.8 -15.5 45.1 -15.4 45.8
1997-01-05 18:00:00 -15.7 44.7 -15.8 44.3 -15.7 44.7
1997-01-06 00:00:00 -16.5 43.9 -16.4 43.8 -16.5 43.9
1997-01-06 06:00:00 -17.3 43.4 -17.4 43.5 -17.3 43.4
1997-01-06 12:00:00 -18.1 43.2 -18.4 43.4 -18.1 43.2
1997-01-06 18:00:00 -18.9 43.1 -19.0 43.4 -18.9 43.1
jtwc_sh reunion neumann
1997-01-07 00:00:00 -19.7 43.0 -19.9 43.3 -19.7 43.0
1997-01-07 06:00:00 -20.5 43.0 -20.4 43.3 -20.5 43.0
1997-01-07 12:00:00 -21.2 43.5 -21.0 43.2 -21.2 43.5
1997-01-07 18:00:00 -21.9 44.1 -21.6 43.4 -21.9 44.1
1997-01-08 00:00:00 -22.8 44.7 -22.2 44.0 -22.8 44.7
1997-01-08 06:00:00 -23.8 45.8 -23.4 45.1 -23.8 45.8
1997-01-08 12:00:00 -25.1 46.2 -25.0 46.1 -25.1 46.2
1997-01-08 18:00:00 -26.4 46.2 -26.5 46.5 -26.4 46.2
1997-01-09 00:00:00 -27.4 46.3 -27.5 46.6 -27.4 46.3
1997-01-09 06:00:00 -28.2 45.9
1997-01-09 12:00:00 -28.9 45.5
1997-01-09 18:00:00 -29.6 45.8
1997-01-10 00:00:00 -30.5 46.3
1997-01-10 06:00:00 -31.3 47.1
1997-01-10 12:00:00 -32.1 48.0
1997-01-10 18:00:00 -32.6 49.5
1997-01-11 00:00:00 -33.5 50.9
1997-01-11 06:00:00 -33.9 52.5

top of pageTrack Data:Intensity

jtwc_sh reunion neumann
Date Wind Pres Wind Pres Wind Pres
1996-12-25 18:00:00 15.
1996-12-26 00:00:00 15.
1996-12-26 06:00:00 15.
1996-12-26 12:00:00 15.
1996-12-26 18:00:00 15.
1996-12-27 00:00:00 15.
1996-12-27 06:00:00 15.
1996-12-27 12:00:00 15.
1996-12-27 18:00:00 15.
1996-12-28 00:00:00 15.
1996-12-28 06:00:00 15.
1996-12-28 12:00:00 15.
1996-12-28 18:00:00 15.
1996-12-29 00:00:00 15.
1996-12-29 06:00:00 15.
1996-12-29 12:00:00 15.
1996-12-29 18:00:00 15.
1996-12-30 00:00:00 15.
1996-12-30 06:00:00 15.
1996-12-30 12:00:00 15.
1996-12-30 18:00:00 15.
1996-12-31 00:00:00 15.
1996-12-31 06:00:00 15.
1996-12-31 12:00:00 15.
1996-12-31 18:00:00 15. 15.
jtwc_sh reunion neumann
1997-01-01 00:00:00 15. 15.
1997-01-01 06:00:00 15. 15.
1997-01-01 12:00:00 15. 15.
1997-01-01 18:00:00 20. 20.
1997-01-02 00:00:00 20. 20.
1997-01-02 06:00:00 25. 25.
1997-01-02 12:00:00 30. 20. 1002. 30.
1997-01-02 18:00:00 35. 25. 1000. 35.
1997-01-03 00:00:00 40. 25. 998. 40.
1997-01-03 06:00:00 50. 30. 995. 50.
1997-01-03 12:00:00 55. 40. 988. 55.
1997-01-03 18:00:00 55. 45. 985. 55.
1997-01-04 00:00:00 55. 45. 985. 55.
1997-01-04 06:00:00 60. 45. 985. 60.
1997-01-04 12:00:00 50. 50.
1997-01-04 18:00:00 40. 40.
1997-01-05 00:00:00 30. 30.
1997-01-05 06:00:00 35. 20. 1007. 35.
1997-01-05 12:00:00 35. 25. 1004. 35.
1997-01-05 18:00:00 35. 28. 1002. 35.
1997-01-06 00:00:00 35. 30. 1000. 35.
1997-01-06 06:00:00 35. 30. 1000. 35.
1997-01-06 12:00:00 35. 30. 998. 35.
1997-01-06 18:00:00 35. 35. 995. 35.
jtwc_sh reunion neumann
1997-01-07 00:00:00 35. 40. 993. 35.
1997-01-07 06:00:00 45. 45. 990. 45.
1997-01-07 12:00:00 55. 45. 990. 55.
1997-01-07 18:00:00 45. 55. 985. 45.
1997-01-08 00:00:00 35. 35.
1997-01-08 06:00:00 30. 30.
1997-01-08 12:00:00 30. 30.
1997-01-08 18:00:00 30. 25. 998. 30.
1997-01-09 00:00:00 30. 25. 998. 30.
1997-01-09 06:00:00 25. 998.
1997-01-09 12:00:00 25. 998.
1997-01-09 18:00:00 25. 1000.
1997-01-10 00:00:00 20. 1002.
1997-01-10 06:00:00 20. 1002.
1997-01-10 12:00:00 1002.
1997-01-10 18:00:00 1004.
1997-01-11 00:00:00 1004.
1997-01-11 06:00:00 1005.

top of page Links to source data

Source Source file Format
jtwc_sh bsh141997.txt ATCF
reunion WMO-Best-Tracks.txt:Line=17768:fabriola WMO (old format)
neumann tracks.sh:Storm=1078:FABRIOLA:BSH141997:JTWC HURDAT